Time;durP1;ratioP1;P1;durP2;ratioP2;P2;SDS_P1;SDS_P2;PMS_P1;PMS_P2;Temp;Humidity;BMP_temperature;BMP_pressure;BME280_temperature;BME280_humidity;BME280_pressure;Samples;Min_cycle;Max_cycle;Signal;HPM_P1;HPM_P2
2022/09/09 00:01:53;;;;;;;0.30;0.30;;;;;;;20.06;80.02;99620.38;5091070;28;20685;-64
2022/09/09 00:04:28;;;;;;;0.40;0.40;;;;;;;19.91;80.85;99623.03;5090487;28;20198;-63
2022/09/09 00:07:03;;;;;;;0.30;0.30;;;;;;;19.77;81.16;99610.06;5090495;28;20308;-64
2022/09/09 00:09:34;;;;;;;0.30;0.30;;;;;;;19.82;81.32;99623.63;5090043;28;20676;-63
2022/09/09 00:12:06;;;;;;;0.40;0.40;;;;;;;19.82;81.32;99618.44;5090116;28;20232;-63
2022/09/09 00:14:40;;;;;;;0.50;0.50;;;;;;;19.89;81.22;99624.91;5090511;28;20209;-64
2022/09/09 00:17:13;;;;;;;0.40;0.40;;;;;;;19.84;81.48;99616.56;5090307;28;20202;-64
2022/09/09 00:19:50;;;;;;;0.40;0.40;;;;;;;19.75;81.52;99614.56;5090266;28;20231;-64
2022/09/09 00:22:21;;;;;;;0.30;0.30;;;;;;;19.76;81.59;99624.03;5094467;28;20709;-64
2022/09/09 00:24:53;;;;;;;0.40;0.40;;;;;;;19.77;81.57;99625.69;5094972;28;20636;-64
2022/09/09 00:27:29;;;;;;;0.30;0.30;;;;;;;19.64;82.03;99617.03;5093066;28;20310;-63
2022/09/09 00:30:01;;;;;;;0.37;0.37;;;;;;;19.69;82.18;99635.75;5091076;28;20192;-63
2022/09/09 00:32:31;;;;;;;0.40;0.40;;;;;;;19.71;82.36;99640.88;5092697;28;20201;-64
2022/09/09 00:35:05;;;;;;;0.40;0.40;;;;;;;19.72;82.22;99653.78;5088530;28;20209;-64
2022/09/09 00:37:34;;;;;;;0.37;0.37;;;;;;;19.76;82.31;99650.06;5094285;28;20567;-64
2022/09/09 00:40:12;;;;;;;0.30;0.30;;;;;;;19.75;82.36;99635.38;5094658;28;20205;-64
2022/09/09 00:42:43;;;;;;;0.40;0.40;;;;;;;19.57;82.17;99607.94;5093119;28;20195;-63
2022/09/09 00:45:35;;;;;;;0.40;0.40;;;;;;;19.70;82.41;99639.19;5094320;28;20197;-63
2022/09/09 00:48:10;;;;;;;0.50;0.50;;;;;;;19.61;82.88;99635.41;5094120;28;20196;-63
2022/09/09 00:50:46;;;;;;;0.30;0.30;;;;;;;19.49;83.37;99637.94;5093493;28;20207;-64
2022/09/09 00:53:27;;;;;;;0.33;0.33;;;;;;;19.41;83.48;99628.03;5094339;28;20260;-63
2022/09/09 00:56:05;;;;;;;0.53;0.53;;;;;;;19.33;83.89;99627.63;5094051;28;20196;-64
2022/09/09 00:58:32;;;;;;;0.40;0.40;;;;;;;19.30;84.20;99630.44;5093551;28;20197;-64
2022/09/09 01:01:06;;;;;;;0.30;0.30;;;;;;;19.24;84.28;99630.81;5087191;28;20284;-63
2022/09/09 01:03:36;;;;;;;0.60;0.60;;;;;;;19.20;84.37;99629.31;5093450;28;20288;-63
2022/09/09 01:06:13;;;;;;;0.30;0.30;;;;;;;19.11;84.76;99635.09;5093998;28;20586;-63
2022/09/09 01:09:03;;;;;;;0.40;0.40;;;;;;;19.11;84.47;99629.91;5093491;28;20552;-64
2022/09/09 01:11:39;;;;;;;0.30;0.30;;;;;;;19.08;84.79;99630.91;5093405;28;20219;-64
2022/09/09 01:14:25;;;;;;;0.40;0.40;;;;;;;19.10;85.07;99633.41;5093658;28;20195;-64
2022/09/09 01:16:57;;;;;;;0.40;0.40;;;;;;;19.17;84.90;99634.72;5093163;28;20655;-64
2022/09/09 01:19:39;;;;;;;0.40;0.40;;;;;;;19.13;84.89;99630.63;5093536;28;20690;-64
2022/09/09 01:22:15;;;;;;;0.30;0.30;;;;;;;19.12;84.87;99631.56;5093109;28;20199;-63
2022/09/09 01:24:55;;;;;;;0.40;0.40;;;;;;;19.05;85.20;99638.06;5093335;28;20221;-64
2022/09/09 01:27:25;;;;;;;0.40;0.40;;;;;;;19.06;85.10;99638.00;5091072;28;20222;-63
2022/09/09 01:29:52;;;;;;;0.50;0.50;;;;;;;18.99;85.64;99641.03;5091559;28;20229;-64
2022/09/09 01:32:40;;;;;;;0.60;0.60;;;;;;;18.93;85.57;99637.06;5093006;28;20660;-64
2022/09/09 01:35:10;;;;;;;0.40;0.40;;;;;;;18.87;86.14;99638.25;5088294;28;20200;-64
2022/09/09 01:37:37;;;;;;;0.50;0.50;;;;;;;18.90;86.15;99626.84;5092204;28;20199;-64
2022/09/09 01:40:04;;;;;;;0.40;0.40;;;;;;;18.89;86.12;99622.59;5091694;28;20202;-63
2022/09/09 01:42:33;;;;;;;0.30;0.30;;;;;;;18.91;86.56;99632.84;5092565;28;20292;-64
2022/09/09 01:44:59;;;;;;;0.30;0.30;;;;;;;18.84;86.54;99614.22;5092751;28;20204;-64
2022/09/09 01:47:26;;;;;;;0.50;0.50;;;;;;;18.96;86.83;99631.69;5092647;28;20268;-63
2022/09/09 01:49:53;;;;;;;0.40;0.40;;;;;;;19.01;86.61;99624.41;5092524;28;20207;-64
2022/09/09 01:52:20;;;;;;;0.50;0.50;;;;;;;18.97;86.96;99620.34;5092141;28;20196;-63
2022/09/09 01:54:47;;;;;;;0.50;0.50;;;;;;;19.01;87.13;99639.19;5090788;28;20209;-64
2022/09/09 01:57:21;;;;;;;0.50;0.50;;;;;;;19.01;87.51;99640.00;5090725;28;20205;-63
2022/09/09 02:00:01;;;;;;;0.40;0.40;;;;;;;19.04;87.31;99644.19;5090761;28;20210;-64
2022/09/09 02:02:33;;;;;;;0.33;0.33;;;;;;;19.01;87.50;99632.22;5083946;28;20206;-64
2022/09/09 02:05:25;;;;;;;0.37;0.37;;;;;;;18.83;87.73;99595.22;5090480;28;20200;-63
2022/09/09 02:08:01;;;;;;;0.40;0.40;;;;;;;19.02;88.95;99631.31;5091398;28;20219;-63
2022/09/09 02:10:33;;;;;;;0.40;0.40;;;;;;;18.99;89.81;99635.84;5085929;28;20676;-64
2022/09/09 02:13:06;;;;;;;0.40;0.40;;;;;;;18.89;90.26;99625.19;5051954;28;20304;-63
2022/09/09 02:15:40;;;;;;;0.40;0.40;;;;;;;18.88;90.60;99623.50;5052154;28;20253;-63
2022/09/09 02:18:09;;;;;;;0.50;0.50;;;;;;;18.85;90.95;99624.53;5052186;28;20193;-63
2022/09/09 02:20:38;;;;;;;0.40;0.40;;;;;;;18.86;90.96;99621.00;5050833;28;20920;-64
2022/09/09 02:23:07;;;;;;;0.50;0.50;;;;;;;18.90;91.00;99626.03;5050549;28;20665;-64
2022/09/09 02:25:36;;;;;;;0.50;0.50;;;;;;;18.80;90.77;99605.75;5050654;28;20219;-63
2022/09/09 02:28:05;;;;;;;0.40;0.40;;;;;;;18.88;90.93;99616.53;5051632;28;20701;-63
2022/09/09 02:30:35;;;;;;;0.40;0.40;;;;;;;18.93;90.75;99629.28;5051856;28;20200;-64
2022/09/09 02:33:06;;;;;;;0.53;0.53;;;;;;;18.93;90.54;99631.03;5051305;28;20200;-64
2022/09/09 02:35:36;;;;;;;0.40;0.40;;;;;;;18.87;90.71;99630.44;5051865;28;20733;-64
2022/09/09 02:38:10;;;;;;;0.50;0.50;;;;;;;18.82;90.58;99632.50;5051006;28;20195;-63
2022/09/09 02:40:36;;;;;;;0.50;0.50;;;;;;;18.78;90.01;99633.59;5051168;28;20665;-63
2022/09/09 02:43:03;;;;;;;0.40;0.40;;;;;;;18.72;89.53;99631.38;5051533;28;20193;-64
2022/09/09 02:45:51;;;;;;;0.47;0.47;;;;;;;18.70;89.33;99635.84;5051272;28;20197;-63
2022/09/09 02:48:29;;;;;;;0.50;0.50;;;;;;;18.68;89.23;99642.03;5051560;28;20213;-64
2022/09/09 02:51:04;;;;;;;0.50;0.50;;;;;;;18.55;88.88;99625.50;5051573;28;20205;-64
2022/09/09 02:53:40;;;;;;;0.40;0.40;;;;;;;18.63;89.07;99642.31;5050903;28;20200;-63
2022/09/09 02:56:15;;;;;;;0.43;0.43;;;;;;;18.62;88.98;99640.63;5051391;28;20196;-64
2022/09/09 02:58:42;;;;;;;0.50;0.50;;;;;;;18.62;88.68;99640.63;5051109;28;20201;-63
2022/09/09 03:01:11;;;;;;;0.40;0.40;;;;;;;18.54;88.31;99632.47;5051444;28;20576;-63
2022/09/09 03:03:38;;;;;;;0.40;0.40;;;;;;;18.49;88.66;99642.25;5050801;28;20681;-64
2022/09/09 03:06:05;;;;;;;0.43;0.43;;;;;;;18.35;89.45;99634.47;5046177;28;20197;-63
2022/09/09 03:08:32;;;;;;;0.30;0.30;;;;;;;18.30;89.63;99631.28;5050860;28;20210;-64
2022/09/09 03:11:01;;;;;;;0.43;0.43;;;;;;;18.32;89.48;99634.59;5058612;28;20234;-63
2022/09/09 03:13:28;;;;;;;0.40;0.40;;;;;;;18.33;89.88;99636.28;5091051;28;20675;-64
2022/09/09 03:15:54;;;;;;;0.37;0.37;;;;;;;18.26;89.62;99619.38;5088234;28;20200;-63
2022/09/09 03:18:23;;;;;;;0.40;0.40;;;;;;;18.31;89.75;99632.94;5086554;28;20192;-64
2022/09/09 03:20:50;;;;;;;0.40;0.40;;;;;;;18.36;89.66;99651.69;5090579;28;20710;-63
2022/09/09 03:23:17;;;;;;;0.60;0.60;;;;;;;18.34;89.33;99653.53;5090738;28;20211;-64
2022/09/09 03:25:48;;;;;;;0.40;0.40;;;;;;;18.32;89.03;99653.59;5090982;28;20226;-64
2022/09/09 03:28:15;;;;;;;0.53;0.53;;;;;;;18.31;88.77;99653.72;5091405;28;20222;-64
2022/09/09 03:30:42;;;;;;;0.40;0.40;;;;;;;18.29;89.01;99660.75;5090421;28;20616;-63
2022/09/09 03:33:08;;;;;;;0.33;0.33;;;;;;;18.29;89.04;99660.75;5090789;28;20205;-64
2022/09/09 03:35:37;;;;;;;0.60;0.60;;;;;;;18.26;88.91;99658.31;5090692;28;20204;-64
2022/09/09 03:38:03;;;;;;;0.40;0.40;;;;;;;18.20;88.76;99656.91;5091062;28;20651;-65
2022/09/09 03:40:30;;;;;;;0.40;0.40;;;;;;;18.20;88.70;99661.28;5091190;28;20751;-64
2022/09/09 03:42:57;;;;;;;0.30;0.30;;;;;;;18.12;89.01;99663.47;5088125;28;20234;-64
2022/09/09 03:45:24;;;;;;;0.40;0.40;;;;;;;17.99;89.87;99652.97;5090036;28;20202;-64
2022/09/09 03:47:51;;;;;;;0.40;0.40;;;;;;;17.91;90.27;99654.28;5090385;28;20648;-64
2022/09/09 03:50:18;;;;;;;0.40;0.40;;;;;;;17.86;90.51;99657.16;5089488;28;20728;-64
2022/09/09 03:52:48;;;;;;;0.60;0.60;;;;;;;17.88;90.36;99655.31;5090742;28;20287;-64
2022/09/09 03:55:15;;;;;;;0.50;0.50;;;;;;;17.90;90.26;99652.66;5094360;28;20195;-64
2022/09/09 03:57:42;;;;;;;0.50;0.50;;;;;;;17.86;90.44;99645.94;5094560;28;20260;-64
2022/09/09 04:00:10;;;;;;;0.50;0.50;;;;;;;17.81;90.29;99644.44;5094925;28;20647;-65
2022/09/09 04:02:37;;;;;;;0.33;0.33;;;;;;;17.82;90.37;99645.28;5092633;28;20578;-64
2022/09/09 04:05:04;;;;;;;0.40;0.40;;;;;;;17.86;90.46;99651.13;5094576;28;20233;-64
2022/09/09 04:07:31;;;;;;;0.40;0.40;;;;;;;17.91;90.54;99655.13;5094564;28;20230;-64
2022/09/09 04:09:59;;;;;;;0.50;0.50;;;;;;;17.95;90.83;99646.28;5094964;28;20191;-64
2022/09/09 04:12:26;;;;;;;0.47;0.47;;;;;;;17.98;90.92;99646.09;5094608;28;20230;-64
2022/09/09 04:14:53;;;;;;;0.40;0.40;;;;;;;18.02;90.89;99644.16;5094199;28;20195;-64
2022/09/09 04:17:21;;;;;;;0.50;0.50;;;;;;;18.05;90.62;99647.41;5085574;28;20202;-64
2022/09/09 04:19:48;;;;;;;0.30;0.30;;;;;;;18.08;90.61;99651.59;5085976;28;20200;-64
2022/09/09 04:22:15;;;;;;;0.40;0.40;;;;;;;18.09;90.81;99651.53;5088994;28;20653;-64
2022/09/09 04:24:42;;;;;;;0.40;0.40;;;;;;;18.12;90.62;99642.72;5092932;28;20683;-64
2022/09/09 04:27:10;;;;;;;0.40;0.40;;;;;;;18.09;90.58;99635.13;5092960;28;20219;-64
2022/09/09 04:29:38;;;;;;;0.60;0.60;;;;;;;18.13;90.59;99640.03;5093720;28;20191;-64
2022/09/09 04:32:05;;;;;;;0.53;0.53;;;;;;;18.16;90.85;99639.84;5094185;28;20192;-64
2022/09/09 04:34:32;;;;;;;0.57;0.57;;;;;;;18.28;90.64;99653.91;5094000;28;20196;-64
2022/09/09 04:37:00;;;;;;;0.40;0.40;;;;;;;18.32;90.75;99655.38;5094298;28;20199;-64
2022/09/09 04:39:26;;;;;;;0.40;0.40;;;;;;;18.39;90.98;99659.28;5093785;28;20201;-64
2022/09/09 04:41:54;;;;;;;0.50;0.50;;;;;;;18.48;90.44;99669.13;5093820;28;20206;-64
2022/09/09 04:44:22;;;;;;;0.30;0.30;;;;;;;18.47;90.33;99656.25;5092342;28;20257;-64
2022/09/09 04:46:48;;;;;;;0.43;0.43;;;;;;;18.68;90.25;99674.03;5093531;28;20204;-64
2022/09/09 04:49:15;;;;;;;0.40;0.40;;;;;;;18.82;89.44;99676.66;5093994;28;20237;-64
2022/09/09 04:51:42;;;;;;;0.40;0.40;;;;;;;18.96;88.93;99682.81;5093843;28;20191;-65
2022/09/09 04:54:09;;;;;;;0.40;0.40;;;;;;;19.00;88.41;99690.31;5093328;28;20198;-64
2022/09/09 04:56:36;;;;;;;0.40;0.40;;;;;;;19.00;88.51;99686.91;5093611;28;20301;-64
2022/09/09 04:59:04;;;;;;;0.40;0.40;;;;;;;18.96;89.33;99669.81;5093006;28;20677;-64
2022/09/09 05:01:32;;;;;;;0.60;0.60;;;;;;;19.15;88.81;99685.97;5093151;28;20207;-64
2022/09/09 05:03:59;;;;;;;0.30;0.30;;;;;;;19.30;89.26;99683.25;5093511;28;20218;-64
2022/09/09 05:06:26;;;;;;;0.40;0.40;;;;;;;19.46;88.52;99675.38;5093393;28;20245;-64
2022/09/09 05:08:52;;;;;;;0.50;0.50;;;;;;;19.62;87.42;99678.69;5093403;28;20591;-64
2022/09/09 05:11:22;;;;;;;0.43;0.43;;;;;;;19.86;85.69;99677.16;5092903;28;20239;-64
2022/09/09 05:13:49;;;;;;;0.30;0.30;;;;;;;20.06;84.99;99675.88;5092530;28;20206;-64
2022/09/09 05:16:17;;;;;;;0.40;0.40;;;;;;;20.29;84.19;99677.81;5091922;28;20202;-65
2022/09/09 05:18:45;;;;;;;0.40;0.40;;;;;;;20.47;82.63;99672.34;5091778;28;20194;-65
2022/09/09 05:21:13;;;;;;;0.30;0.30;;;;;;;20.61;81.63;99672.28;5091050;28;20234;-64
2022/09/09 05:23:41;;;;;;;0.40;0.40;;;;;;;20.76;79.81;99666.88;5090947;28;20899;-64
2022/09/09 05:26:10;;;;;;;1.30;1.30;;;;;;;21.01;79.77;99676.44;5091583;28;20669;-64
2022/09/09 05:28:37;;;;;;;0.40;0.40;;;;;;;21.26;79.25;99673.84;5092179;28;20670;-65
2022/09/09 05:31:07;;;;;;;0.30;0.30;;;;;;;21.46;79.69;99673.28;5091090;28;20219;-63
2022/09/09 05:33:36;;;;;;;0.30;0.30;;;;;;;21.69;79.46;99679.47;5089012;28;20719;-63
2022/09/09 05:36:08;;;;;;;0.37;0.37;;;;;;;21.95;79.36;99678.47;5090388;28;20565;-62
2022/09/09 05:38:36;;;;;;;0.30;0.30;;;;;;;22.15;76.37;99681.41;5090624;28;20210;-62
2022/09/09 05:41:03;;;;;;;0.30;0.30;;;;;;;22.29;75.71;99683.88;5090904;28;20229;-63
2022/09/09 05:43:32;;;;;;;0.30;0.30;;;;;;;22.45;76.11;99681.78;5091500;28;20200;-63
2022/09/09 05:46:04;;;;;;;0.20;0.20;;;;;;;22.66;73.76;99680.19;5091885;28;20594;-62
2022/09/09 05:48:31;;;;;;;0.30;0.30;;;;;;;22.76;72.28;99662.03;5091859;28;20276;-62
2022/09/09 05:50:59;;;;;;;0.40;0.40;;;;;;;22.99;71.60;99661.94;5090247;28;20192;-64
2022/09/09 05:53:28;;;;;;;0.20;0.20;;;;;;;23.33;70.98;99680.22;5090044;28;20444;-62
2022/09/09 05:56:03;;;;;;;0.30;0.30;;;;;;;23.59;69.89;99679.06;5090876;28;20578;-62
2022/09/09 05:58:30;;;;;;;0.30;0.30;;;;;;;23.76;68.79;99686.41;5091391;28;20239;-62
2022/09/09 06:01:08;;;;;;;0.30;0.30;;;;;;;23.87;69.60;99681.16;5092276;28;20252;-62
2022/09/09 06:03:35;;;;;;;0.20;0.20;;;;;;;23.77;68.85;99677.59;5092059;28;20659;-62
2022/09/09 06:06:05;;;;;;;0.23;0.23;;;;;;;23.92;68.55;99670.28;5091916;28;20203;-62
2022/09/09 06:08:34;;;;;;;0.20;0.20;;;;;;;23.71;68.27;99643.22;5090574;28;20835;-64
2022/09/09 06:11:04;;;;;;;0.20;0.20;;;;;;;23.99;68.76;99659.19;5085343;28;20223;-64
2022/09/09 06:13:32;;;;;;;0.20;0.20;;;;;;;24.13;67.82;99660.75;5089793;28;20200;-67
2022/09/09 06:15:59;;;;;;;0.40;0.40;;;;;;;24.32;68.52;99662.66;5089437;28;20288;-65
2022/09/09 06:18:26;;;;;;;0.20;0.20;;;;;;;24.45;67.73;99652.84;5090100;28;20200;-63
2022/09/09 06:20:57;;;;;;;0.20;0.20;;;;;;;24.54;67.15;99645.03;5090749;28;20199;-64
2022/09/09 06:23:25;;;;;;;0.20;0.20;;;;;;;24.78;66.83;99657.03;5088458;28;20203;-64
2022/09/09 06:26:00;;;;;;;0.20;0.20;;;;;;;24.93;66.18;99656.59;5089527;28;20302;-65
2022/09/09 06:28:27;;;;;;;0.30;0.30;;;;;;;25.14;65.08;99668.84;5087082;28;20706;-65
2022/09/09 06:30:58;;;;;;;0.20;0.20;;;;;;;25.29;64.49;99678.84;5089146;28;20207;-65
2022/09/09 06:33:25;;;;;;;0.20;0.20;;;;;;;25.48;63.00;99672.81;5089924;28;20203;-64
2022/09/09 06:35:53;;;;;;;0.23;0.23;;;;;;;25.61;61.37;99683.94;5089436;28;20203;-66
2022/09/09 06:38:21;;;;;;;0.20;0.20;;;;;;;25.68;60.77;99679.81;5090747;28;20287;-64
2022/09/09 06:40:54;;;;;;;0.23;0.23;;;;;;;25.69;62.28;99663.09;5086309;28;20231;-64
2022/09/09 06:43:21;;;;;;;0.20;0.20;;;;;;;25.89;60.60;99677.91;5088625;28;20207;-64
2022/09/09 06:45:55;;;;;;;0.20;0.20;;;;;;;26.08;59.56;99671.84;5087033;28;20203;-64
2022/09/09 06:48:22;;;;;;;0.20;0.20;;;;;;;25.95;58.85;99674.72;5086644;28;20755;-64
2022/09/09 06:50:49;;;;;;;0.20;0.20;;;;;;;26.24;58.40;99679.19;5088983;28;20696;-65
2022/09/09 06:53:18;;;;;;;0.30;0.30;;;;;;;26.37;58.55;99677.13;5083054;28;20579;-65
2022/09/09 06:55:46;;;;;;;0.20;0.20;;;;;;;26.35;56.12;99679.06;5090034;28;20674;-64
2022/09/09 06:58:14;;;;;;;0.20;0.20;;;;;;;26.49;56.53;99682.13;5089210;28;20195;-64
2022/09/09 07:00:41;;;;;;;0.20;0.20;;;;;;;26.39;57.17;99681.28;5089636;28;20217;-64
2022/09/09 07:03:08;;;;;;;0.20;0.20;;;;;;;26.45;55.06;99674.63;5086707;28;20195;-64
2022/09/09 07:05:35;;;;;;;0.20;0.20;;;;;;;25.93;56.63;99668.78;5090470;28;20215;-66
2022/09/09 07:08:02;;;;;;;0.27;0.27;;;;;;;25.49;58.35;99669.25;5090117;28;20306;-65
2022/09/09 07:10:29;;;;;;;0.20;0.20;;;;;;;25.65;58.96;99674.00;5089283;28;20199;-65
2022/09/09 07:12:56;;;;;;;0.20;0.20;;;;;;;26.03;57.96;99674.91;5086149;28;20242;-64
2022/09/09 07:15:24;;;;;;;0.30;0.30;;;;;;;26.37;59.74;99671.84;5088270;28;20199;-65
2022/09/09 07:17:51;;;;;;;0.30;0.30;;;;;;;26.71;58.66;99682.75;5088149;28;20273;-66
2022/09/09 07:20:19;;;;;;;0.20;0.20;;;;;;;26.80;55.95;99674.00;5089152;28;20203;-64
2022/09/09 07:22:46;;;;;;;0.20;0.20;;;;;;;27.08;54.34;99679.22;5089397;28;20240;-64
2022/09/09 07:25:14;;;;;;;0.20;0.20;;;;;;;27.25;53.54;99666.25;5089468;28;20205;-64
2022/09/09 07:27:40;;;;;;;0.10;0.10;;;;;;;27.41;54.37;99677.81;5084607;28;20199;-65
2022/09/09 07:30:09;;;;;;;0.20;0.20;;;;;;;27.42;55.66;99670.75;5089213;28;20199;-65
2022/09/09 07:32:37;;;;;;;0.20;0.20;;;;;;;27.42;54.19;99665.50;5089960;28;20203;-65
2022/09/09 07:35:04;;;;;;;0.20;0.20;;;;;;;27.53;54.19;99678.47;5090090;28;20195;-64
2022/09/09 07:37:31;;;;;;;0.20;0.20;;;;;;;27.74;53.10;99676.44;5089555;28;20215;-63
2022/09/09 07:39:58;;;;;;;0.20;0.20;;;;;;;27.86;52.16;99669.94;5089729;28;20200;-66
2022/09/09 07:42:25;;;;;;;0.27;0.27;;;;;;;27.96;51.37;99673.34;5085963;28;20635;-65
2022/09/09 07:44:54;;;;;;;0.20;0.20;;;;;;;28.03;51.15;99661.22;5089483;28;20671;-65
2022/09/09 07:47:21;;;;;;;0.23;0.23;;;;;;;28.19;50.13;99660.56;5086817;28;20285;-66
2022/09/09 07:49:49;;;;;;;0.10;0.10;;;;;;;28.46;49.72;99662.28;5083363;28;20211;-65
2022/09/09 07:52:16;;;;;;;0.50;0.50;;;;;;;28.62;49.33;99662.41;5085317;28;20278;-66
2022/09/09 07:54:45;;;;;;;0.13;0.13;;;;;;;28.50;48.99;99658.34;5089052;28;20237;-66
2022/09/09 07:57:12;;;;;;;0.22;0.22;;;;;;;28.36;49.91;99656.28;5089357;28;20245;-66
2022/09/09 07:59:39;;;;;;;0.30;0.30;;;;;;;28.12;50.42;99652.44;5089655;28;20582;-65
2022/09/09 08:02:06;;;;;;;0.20;0.20;;;;;;;27.72;49.84;99652.03;5089334;28;20203;-65
2022/09/09 08:04:33;;;;;;;0.20;0.20;;;;;;;27.76;51.75;99653.38;5088707;28;20199;-65
2022/09/09 08:07:02;;;;;;;0.20;0.20;;;;;;;28.06;50.51;99650.41;5087712;28;20230;-65
2022/09/09 08:09:32;;;;;;;0.20;0.20;;;;;;;28.16;51.34;99650.34;5086447;28;20591;-66
2022/09/09 08:11:59;;;;;;;0.10;0.10;;;;;;;28.20;51.73;99648.22;5087791;28;20226;-66
2022/09/09 08:14:26;;;;;;;0.10;0.10;;;;;;;28.19;49.66;99650.03;5089506;28;20683;-66
2022/09/09 08:16:54;;;;;;;0.17;0.17;;;;;;;28.35;50.37;99641.41;5088368;28;20215;-65
2022/09/09 08:19:20;;;;;;;0.60;0.60;;;;;;;28.41;50.88;99653.97;5087964;28;20203;-67
2022/09/09 08:21:48;;;;;;;0.20;0.20;;;;;;;28.35;50.11;99657.25;5088211;28;20199;-66
2022/09/09 08:24:16;;;;;;;0.20;0.20;;;;;;;28.43;50.71;99649.41;5089286;28;20637;-66
2022/09/09 08:26:46;;;;;;;0.30;0.30;;;;;;;28.30;50.19;99646.34;5087701;28;20208;-66
2022/09/09 08:29:14;;;;;;;0.20;0.20;;;;;;;28.28;49.13;99638.56;5086227;28;20219;-66
2022/09/09 08:31:43;;;;;;;0.17;0.17;;;;;;;28.34;49.39;99632.69;5084895;28;20204;-68
2022/09/09 08:34:10;;;;;;;0.17;0.17;;;;;;;28.36;49.53;99636.00;5090028;28;20659;-66
2022/09/09 08:36:38;;;;;;;0.20;0.20;;;;;;;28.38;49.06;99630.56;5083236;28;20215;-65
2022/09/09 08:39:08;;;;;;;0.20;0.20;;;;;;;28.32;49.83;99633.81;5088772;28;20207;-66
2022/09/09 08:42:01;;;;;;;0.10;0.10;;;;;;;28.43;50.23;99621.22;5090789;28;20211;-66
2022/09/09 08:44:42;;;;;;;0.20;0.20;;;;;;;28.60;51.37;99632.69;5091883;28;20195;-66
2022/09/09 08:47:19;;;;;;;0.20;0.20;;;;;;;28.68;49.13;99630.16;5090207;28;20199;-66
2022/09/09 08:50:03;;;;;;;0.20;0.20;;;;;;;28.71;49.97;99624.56;5089251;28;20223;-65
2022/09/09 08:52:32;;;;;;;0.20;0.20;;;;;;;28.65;49.58;99609.31;5091653;28;20624;-65
2022/09/09 08:55:12;;;;;;;0.20;0.20;;;;;;;28.92;48.02;99627.63;5092655;28;20199;-65
2022/09/09 08:57:40;;;;;;;0.20;0.20;;;;;;;29.01;49.19;99631.16;5086986;28;20203;-65
2022/09/09 09:00:10;;;;;;;0.17;0.17;;;;;;;29.08;49.93;99632.19;5084457;28;20244;-65
2022/09/09 09:02:49;;;;;;;0.10;0.10;;;;;;;29.38;49.11;99625.53;5090090;28;20234;-66
2022/09/09 09:05:24;;;;;;;0.15;0.15;;;;;;;29.59;47.10;99620.66;5092304;28;21809;-65
2022/09/09 09:08:06;;;;;;;0.10;0.10;;;;;;;29.63;46.99;99606.09;5089641;28;20202;-64
2022/09/09 09:10:47;;;;;;;0.50;0.50;;;;;;;29.61;46.71;99616.03;5090835;28;20242;-65
2022/09/09 09:13:21;;;;;;;0.20;0.20;;;;;;;29.66;47.50;99609.25;5090125;28;20235;-64
2022/09/09 09:15:53;;;;;;;0.10;0.10;;;;;;;29.81;47.93;99598.06;5091436;28;20234;-64
2022/09/09 09:18:20;;;;;;;0.10;0.10;;;;;;;29.93;47.59;99602.88;5090708;28;20291;-65
2022/09/09 09:20:54;;;;;;;0.20;0.20;;;;;;;30.01;48.32;99597.63;5088101;28;20261;-65
2022/09/09 09:23:24;;;;;;;0.10;0.10;;;;;;;29.92;47.98;99595.94;5090359;28;20202;-65
2022/09/09 09:25:57;;;;;;;0.13;0.13;;;;;;;29.95;48.44;99589.50;5091283;28;20215;-65
2022/09/09 09:28:28;;;;;;;0.20;0.20;;;;;;;29.54;46.96;99586.78;5090950;28;20203;-66
2022/09/09 09:30:59;;;;;;;0.17;0.17;;;;;;;29.46;48.60;99592.06;5090111;28;20203;-64
2022/09/09 09:33:31;;;;;;;0.15;0.15;;;;;;;29.56;49.17;99570.78;5089203;28;20663;-64
2022/09/09 09:35:59;;;;;;;0.20;0.20;;;;;;;29.59;49.85;99575.75;5089272;28;20199;-64
2022/09/09 09:38:27;;;;;;;0.20;0.20;;;;;;;29.72;49.29;99572.63;5089992;28;20211;-64
2022/09/09 09:40:57;;;;;;;0.10;0.10;;;;;;;29.61;47.48;99573.75;5091268;28;20233;-65
2022/09/09 09:43:29;;;;;;;0.10;0.10;;;;;;;29.59;48.94;99568.66;5090673;28;20671;-65
2022/09/09 09:45:57;;;;;;;0.25;0.25;;;;;;;29.67;47.28;99581.03;5083844;28;20691;-66
2022/09/09 09:48:25;;;;;;;0.10;0.10;;;;;;;29.63;47.84;99566.47;5086785;28;20203;-65
2022/09/09 09:50:54;;;;;;;0.10;0.10;;;;;;;29.43;48.11;99567.78;5087335;28;20288;-64
2022/09/09 09:53:25;;;;;;;0.20;0.20;;;;;;;29.43;48.47;99567.78;5091336;28;20272;-64
2022/09/09 09:55:56;;;;;;;0.30;0.30;;;;;;;29.33;49.26;99567.09;5091215;28;20207;-64
2022/09/09 09:58:24;;;;;;;0.10;0.10;;;;;;;29.34;49.05;99563.47;5091195;28;20203;-65
2022/09/09 10:00:54;;;;;;;0.20;0.20;;;;;;;29.15;48.67;99559.25;5090626;28;20196;-66
2022/09/09 10:03:24;;;;;;;0.38;0.38;;;;;;;29.20;49.56;99549.03;5087119;28;20203;-65
2022/09/09 10:05:52;;;;;;;0.10;0.10;;;;;;;29.13;48.78;99540.94;5088341;28;20294;-64
2022/09/09 10:08:19;;;;;;;0.20;0.20;;;;;;;29.33;48.34;99541.53;5087347;28;20234;-65
2022/09/09 10:11:05;;;;;;;0.13;0.13;;;;;;;29.24;49.30;99520.50;5090182;28;20225;-64
2022/09/09 10:13:45;;;;;;;0.17;0.17;;;;;;;29.34;49.42;99529.16;5089040;28;20655;-64
2022/09/09 10:16:26;;;;;;;0.10;0.10;;;;;;;29.57;48.53;99532.78;5089933;28;20202;-64
2022/09/09 10:19:00;;;;;;;0.17;0.17;;;;;;;29.69;48.37;99534.13;5086167;28;20201;-65
2022/09/09 10:21:48;;;;;;;0.15;0.15;;;;;;;29.79;47.21;99542.69;5087812;28;20204;-64
2022/09/09 10:24:29;;;;;;;0.10;0.10;;;;;;;29.83;47.09;99533.47;5087011;28;20272;-64
2022/09/09 10:27:01;;;;;;;0.10;0.10;;;;;;;29.92;48.17;99521.91;5088129;28;20683;-65
2022/09/09 10:29:43;;;;;;;0.20;0.20;;;;;;;29.98;46.55;99542.41;5088955;28;20687;-65
2022/09/09 10:32:40;;;;;;;0.10;0.10;;;;;;;30.15;46.12;99541.38;5089094;28;20207;-64
2022/09/09 10:35:13;;;;;;;0.10;0.10;;;;;;;30.07;47.31;99536.13;5089499;28;20204;-65
2022/09/09 10:37:58;;;;;;;0.10;0.10;;;;;;;30.12;46.38;99533.78;5089623;28;20200;-65
2022/09/09 10:40:32;;;;;;;0.20;0.20;;;;;;;29.97;46.07;99524.91;5085316;28;20257;-64
2022/09/09 10:43:10;;;;;;;0.20;0.20;;;;;;;29.86;47.12;99527.88;5085982;28;20211;-64
2022/09/09 10:45:49;;;;;;;0.20;0.20;;;;;;;29.97;47.82;99516.97;5087720;28;20532;-64
2022/09/09 10:48:43;;;;;;;0.20;0.20;;;;;;;29.81;47.05;99519.59;5081433;28;20230;-64
2022/09/09 10:51:23;;;;;;;0.10;0.10;;;;;;;29.77;46.56;99507.69;5089371;28;20191;-65
2022/09/09 10:54:03;;;;;;;0.20;0.20;;;;;;;29.65;48.05;99522.22;5089855;28;20276;-64
2022/09/09 10:56:31;;;;;;;0.17;0.17;;;;;;;29.70;47.36;99517.25;5087243;28;20207;-67
2022/09/09 10:59:03;;;;;;;0.20;0.20;;;;;;;29.51;47.35;99522.88;5089799;28;20203;-66
2022/09/09 11:01:35;;;;;;;0.20;0.20;;;;;;;29.61;48.19;99512.97;5089047;28;20207;-64
2022/09/09 11:04:11;;;;;;;0.10;0.10;;;;;;;29.75;48.62;99514.97;5087506;28;20207;-65
2022/09/09 11:06:42;;;;;;;0.20;0.20;;;;;;;29.76;49.12;99502.59;5088936;28;20203;-65
2022/09/09 11:09:18;;;;;;;0.10;0.10;;;;;;;30.04;49.34;99496.81;5085543;28;20306;-65
2022/09/09 11:11:51;;;;;;;0.28;0.28;;;;;;;30.05;47.28;99495.78;5088978;28;20330;-64
2022/09/09 11:14:22;;;;;;;0.20;0.20;;;;;;;30.00;46.15;99494.66;5089865;28;20694;-65
2022/09/09 11:16:53;;;;;;;0.15;0.15;;;;;;;29.87;46.68;99489.88;5090094;28;20252;-64
2022/09/09 11:19:27;;;;;;;0.15;0.15;;;;;;;29.78;46.77;99484.72;5090073;28;20203;-64
2022/09/09 11:21:57;;;;;;;0.10;0.10;;;;;;;29.78;47.25;99474.16;5087045;28;20203;-66
2022/09/09 11:24:30;;;;;;;0.30;0.30;;;;;;;29.78;47.49;99482.91;5085113;28;20204;-65
2022/09/09 11:27:02;;;;;;;0.20;0.20;;;;;;;29.83;47.78;99471.88;5086876;28;20291;-65
2022/09/09 11:30:00;;;;;;;0.20;0.20;;;;;;;29.98;46.41;99465.75;5089067;28;20242;-65
2022/09/09 11:33:00;;;;;;;0.20;0.20;;;;;;;29.94;46.59;99472.34;5073598;28;20199;-65
2022/09/09 11:35:50;;;;;;;0.20;0.20;;;;;;;30.04;48.11;99462.44;5061086;28;20203;-64
2022/09/09 11:38:22;;;;;;;0.10;0.10;;;;;;;30.12;47.86;99470.31;5088734;28;20219;-64
2022/09/09 11:41:02;;;;;;;0.20;0.20;;;;;;;30.23;46.20;99481.53;5087164;28;20672;-66
2022/09/09 11:43:32;;;;;;;0.10;0.10;;;;;;;30.23;45.77;99478.91;5086943;28;20203;-65
2022/09/09 11:46:02;;;;;;;0.10;0.10;;;;;;;30.00;45.33;99465.56;5089781;28;20246;-65
2022/09/09 11:48:34;;;;;;;0.10;0.10;;;;;;;29.96;46.50;99466.88;5089959;28;20218;-65
2022/09/09 11:51:07;;;;;;;0.20;0.20;;;;;;;29.88;46.83;99459.00;5089730;28;20298;-64
2022/09/09 11:53:34;;;;;;;0.15;0.15;;;;;;;29.99;46.50;99456.81;5089776;28;20203;-65